sensor_id;sensor_type;location;lat;lon;timestamp;temperature;humidity
67182;DHT22;54114;53.524;49.396;2023-02-02T00:00:57;-5.10;58.30
67182;DHT22;54114;53.524;49.396;2023-02-02T00:03:24;-5.10;58.50
67182;DHT22;54114;53.524;49.396;2023-02-02T00:05:51;-5.10;58.60
67182;DHT22;54114;53.524;49.396;2023-02-02T00:08:18;-5.10;58.70
67182;DHT22;54114;53.524;49.396;2023-02-02T00:10:46;-5.10;58.70
67182;DHT22;54114;53.524;49.396;2023-02-02T00:13:12;-5.10;58.90
67182;DHT22;54114;53.524;49.396;2023-02-02T00:15:39;-5.10;59.00
67182;DHT22;54114;53.524;49.396;2023-02-02T00:18:05;-5.10;59.20
67182;DHT22;54114;53.524;49.396;2023-02-02T00:20:32;-5.10;59.50
67182;DHT22;54114;53.524;49.396;2023-02-02T00:23:01;-5.10;59.70
67182;DHT22;54114;53.524;49.396;2023-02-02T00:25:28;-5.10;59.80
67182;DHT22;54114;53.524;49.396;2023-02-02T00:27:55;-5.10;59.90
67182;DHT22;54114;53.524;49.396;2023-02-02T00:30:21;-5.00;59.90
67182;DHT22;54114;53.524;49.396;2023-02-02T00:32:48;-5.00;59.90
67182;DHT22;54114;53.524;49.396;2023-02-02T00:35:16;-5.00;60.10
67182;DHT22;54114;53.524;49.396;2023-02-02T00:37:43;-4.90;60.30
67182;DHT22;54114;53.524;49.396;2023-02-02T00:40:10;-4.90;60.30
67182;DHT22;54114;53.524;49.396;2023-02-02T00:42:36;-4.80;60.50
67182;DHT22;54114;53.524;49.396;2023-02-02T00:45:03;-4.80;60.60
67182;DHT22;54114;53.524;49.396;2023-02-02T00:47:43;-4.80;60.80
67182;DHT22;54114;53.524;49.396;2023-02-02T00:50:11;-4.70;61.00
67182;DHT22;54114;53.524;49.396;2023-02-02T00:52:39;-4.70;61.00
67182;DHT22;54114;53.524;49.396;2023-02-02T00:55:06;-4.70;61.10
67182;DHT22;54114;53.524;49.396;2023-02-02T00:57:33;-4.70;61.20
67182;DHT22;54114;53.524;49.396;2023-02-02T01:00:00;-4.60;61.40
67182;DHT22;54114;53.524;49.396;2023-02-02T01:02:26;-4.60;61.50
67182;DHT22;54114;53.524;49.396;2023-02-02T01:04:53;-4.60;61.70
67182;DHT22;54114;53.524;49.396;2023-02-02T01:07:19;-4.60;61.90
67182;DHT22;54114;53.524;49.396;2023-02-02T01:09:46;-4.60;62.20
67182;DHT22;54114;53.524;49.396;2023-02-02T01:12:12;-4.50;62.40
67182;DHT22;54114;53.524;49.396;2023-02-02T01:14:38;-4.50;62.60
67182;DHT22;54114;53.524;49.396;2023-02-02T01:17:05;-4.50;63.00
67182;DHT22;54114;53.524;49.396;2023-02-02T01:19:31;-4.50;63.20
67182;DHT22;54114;53.524;49.396;2023-02-02T01:21:57;-4.50;63.20
67182;DHT22;54114;53.524;49.396;2023-02-02T01:24:24;-4.40;63.30
67182;DHT22;54114;53.524;49.396;2023-02-02T01:26:50;-4.40;63.40
67182;DHT22;54114;53.524;49.396;2023-02-02T01:29:17;-4.30;63.70
67182;DHT22;54114;53.524;49.396;2023-02-02T01:31:43;-4.40;63.90
67182;DHT22;54114;53.524;49.396;2023-02-02T01:34:10;-4.40;64.00
67182;DHT22;54114;53.524;49.396;2023-02-02T01:36:38;-4.40;64.10
67182;DHT22;54114;53.524;49.396;2023-02-02T01:39:05;-4.30;64.20
67182;DHT22;54114;53.524;49.396;2023-02-02T01:41:31;-4.30;64.20
67182;DHT22;54114;53.524;49.396;2023-02-02T01:44:02;-4.20;64.10
67182;DHT22;54114;53.524;49.396;2023-02-02T01:46:33;-4.20;64.20
67182;DHT22;54114;53.524;49.396;2023-02-02T01:51:41;-4.10;64.30
67182;DHT22;54114;53.524;49.396;2023-02-02T01:54:11;-4.10;64.20
67182;DHT22;54114;53.524;49.396;2023-02-02T01:56:43;-4.10;64.20
67182;DHT22;54114;53.524;49.396;2023-02-02T01:59:13;-4.20;64.30
67182;DHT22;54114;53.524;49.396;2023-02-02T02:01:41;-4.20;64.40
67182;DHT22;54114;53.524;49.396;2023-02-02T02:04:08;-4.20;64.40
67182;DHT22;54114;53.524;49.396;2023-02-02T02:06:34;-4.20;64.40
67182;DHT22;54114;53.524;49.396;2023-02-02T02:09:02;-4.20;64.40
67182;DHT22;54114;53.524;49.396;2023-02-02T02:11:30;-4.20;64.50
67182;DHT22;54114;53.524;49.396;2023-02-02T02:13:57;-4.20;64.40
67182;DHT22;54114;53.524;49.396;2023-02-02T02:17:06;-4.20;64.40
67182;DHT22;54114;53.524;49.396;2023-02-02T02:19:54;-4.20;64.50
67182;DHT22;54114;53.524;49.396;2023-02-02T02:23:08;-4.20;64.70
67182;DHT22;54114;53.524;49.396;2023-02-02T02:31:44;-4.20;64.90
67182;DHT22;54114;53.524;49.396;2023-02-02T02:40:02;-4.20;65.30
67182;DHT22;54114;53.524;49.396;2023-02-02T02:42:33;-4.20;65.40
67182;DHT22;54114;53.524;49.396;2023-02-02T02:45:03;-4.20;65.40
67182;DHT22;54114;53.524;49.396;2023-02-02T02:47:30;-4.20;65.30
67182;DHT22;54114;53.524;49.396;2023-02-02T02:49:57;-4.20;65.30
67182;DHT22;54114;53.524;49.396;2023-02-02T02:52:23;-4.10;65.40
67182;DHT22;54114;53.524;49.396;2023-02-02T02:54:54;-4.10;65.30
67182;DHT22;54114;53.524;49.396;2023-02-02T03:02:57;-4.10;65.70
67182;DHT22;54114;53.524;49.396;2023-02-02T03:08:04;-4.10;65.90
67182;DHT22;54114;53.524;49.396;2023-02-02T03:10:34;-4.10;65.90
67182;DHT22;54114;53.524;49.396;2023-02-02T03:13:07;-4.10;66.00
67182;DHT22;54114;53.524;49.396;2023-02-02T03:15:34;-4.10;66.00
67182;DHT22;54114;53.524;49.396;2023-02-02T03:18:01;-4.10;65.90
67182;DHT22;54114;53.524;49.396;2023-02-02T03:20:27;-4.00;66.00
67182;DHT22;54114;53.524;49.396;2023-02-02T03:22:54;-4.10;65.80
67182;DHT22;54114;53.524;49.396;2023-02-02T03:25:20;-4.10;65.90
67182;DHT22;54114;53.524;49.396;2023-02-02T03:27:48;-4.00;66.00
67182;DHT22;54114;53.524;49.396;2023-02-02T03:30:15;-4.00;66.00
67182;DHT22;54114;53.524;49.396;2023-02-02T03:32:42;-4.00;66.10
67182;DHT22;54114;53.524;49.396;2023-02-02T03:35:08;-4.00;66.20
67182;DHT22;54114;53.524;49.396;2023-02-02T03:37:35;-4.00;66.20
67182;DHT22;54114;53.524;49.396;2023-02-02T03:40:01;-4.00;66.10
67182;DHT22;54114;53.524;49.396;2023-02-02T03:42:28;-4.00;66.10
67182;DHT22;54114;53.524;49.396;2023-02-02T03:44:55;-4.00;66.10
67182;DHT22;54114;53.524;49.396;2023-02-02T03:47:22;-3.90;66.10
67182;DHT22;54114;53.524;49.396;2023-02-02T03:49:48;-3.90;66.20
67182;DHT22;54114;53.524;49.396;2023-02-02T03:52:14;-3.90;66.20
67182;DHT22;54114;53.524;49.396;2023-02-02T03:54:41;-3.90;66.20
67182;DHT22;54114;53.524;49.396;2023-02-02T03:57:07;-3.90;66.20
67182;DHT22;54114;53.524;49.396;2023-02-02T03:59:33;-3.90;66.30
67182;DHT22;54114;53.524;49.396;2023-02-02T04:02:00;-3.90;66.50
67182;DHT22;54114;53.524;49.396;2023-02-02T04:04:26;-3.90;66.60
67182;DHT22;54114;53.524;49.396;2023-02-02T04:06:53;-3.90;66.60
67182;DHT22;54114;53.524;49.396;2023-02-02T04:09:19;-3.80;66.70
67182;DHT22;54114;53.524;49.396;2023-02-02T04:11:45;-3.80;66.70
67182;DHT22;54114;53.524;49.396;2023-02-02T04:14:12;-3.80;66.70
67182;DHT22;54114;53.524;49.396;2023-02-02T04:16:38;-3.80;66.80
67182;DHT22;54114;53.524;49.396;2023-02-02T04:19:05;-3.90;66.70
67182;DHT22;54114;53.524;49.396;2023-02-02T04:21:31;-3.80;66.80
67182;DHT22;54114;53.524;49.396;2023-02-02T04:23:57;-3.80;66.90
67182;DHT22;54114;53.524;49.396;2023-02-02T04:26:24;-3.80;66.90
67182;DHT22;54114;53.524;49.396;2023-02-02T04:28:51;-3.80;66.80
67182;DHT22;54114;53.524;49.396;2023-02-02T04:31:18;-3.70;66.90
67182;DHT22;54114;53.524;49.396;2023-02-02T04:33:44;-3.70;66.90
67182;DHT22;54114;53.524;49.396;2023-02-02T04:36:11;-3.70;66.80
67182;DHT22;54114;53.524;49.396;2023-02-02T04:38:37;-3.70;66.80
67182;DHT22;54114;53.524;49.396;2023-02-02T04:41:07;-3.70;66.90
67182;DHT22;54114;53.524;49.396;2023-02-02T04:43:36;-3.70;66.80
67182;DHT22;54114;53.524;49.396;2023-02-02T04:46:03;-3.70;66.80
67182;DHT22;54114;53.524;49.396;2023-02-02T04:48:30;-3.70;66.80
67182;DHT22;54114;53.524;49.396;2023-02-02T04:51:00;-3.60;66.90
67182;DHT22;54114;53.524;49.396;2023-02-02T04:53:27;-3.60;66.90
67182;DHT22;54114;53.524;49.396;2023-02-02T04:55:54;-3.60;66.80
67182;DHT22;54114;53.524;49.396;2023-02-02T04:58:21;-3.60;66.70
67182;DHT22;54114;53.524;49.396;2023-02-02T05:00:47;-3.60;66.50
67182;DHT22;54114;53.524;49.396;2023-02-02T05:03:14;-3.60;66.60
67182;DHT22;54114;53.524;49.396;2023-02-02T05:05:40;-3.60;66.80
67182;DHT22;54114;53.524;49.396;2023-02-02T05:08:07;-3.60;66.80
67182;DHT22;54114;53.524;49.396;2023-02-02T05:10:34;-3.70;66.70
67182;DHT22;54114;53.524;49.396;2023-02-02T05:13:00;-3.60;66.90
67182;DHT22;54114;53.524;49.396;2023-02-02T05:15:27;-3.60;66.90
67182;DHT22;54114;53.524;49.396;2023-02-02T05:17:53;-3.60;66.90
67182;DHT22;54114;53.524;49.396;2023-02-02T05:20:19;-3.50;67.10
67182;DHT22;54114;53.524;49.396;2023-02-02T05:22:47;-3.50;67.10
67182;DHT22;54114;53.524;49.396;2023-02-02T05:25:14;-3.50;67.20
67182;DHT22;54114;53.524;49.396;2023-02-02T05:27:45;-3.50;67.10
67182;DHT22;54114;53.524;49.396;2023-02-02T05:30:12;-3.40;67.20
67182;DHT22;54114;53.524;49.396;2023-02-02T05:32:39;-3.40;67.20
67182;DHT22;54114;53.524;49.396;2023-02-02T05:35:06;-3.30;67.20
67182;DHT22;54114;53.524;49.396;2023-02-02T05:37:33;-3.30;67.10
67182;DHT22;54114;53.524;49.396;2023-02-02T05:39:59;-3.20;67.20
67182;DHT22;54114;53.524;49.396;2023-02-02T05:42:26;-3.20;67.10
67182;DHT22;54114;53.524;49.396;2023-02-02T05:44:52;-3.20;67.10
67182;DHT22;54114;53.524;49.396;2023-02-02T05:47:18;-3.10;67.10
67182;DHT22;54114;53.524;49.396;2023-02-02T05:49:46;-3.10;67.10
67182;DHT22;54114;53.524;49.396;2023-02-02T05:52:13;-3.00;67.10
67182;DHT22;54114;53.524;49.396;2023-02-02T05:54:42;-3.00;67.00
67182;DHT22;54114;53.524;49.396;2023-02-02T05:57:09;-3.00;67.00
67182;DHT22;54114;53.524;49.396;2023-02-02T05:59:41;-2.90;67.10
67182;DHT22;54114;53.524;49.396;2023-02-02T06:02:08;-2.90;67.30
67182;DHT22;54114;53.524;49.396;2023-02-02T06:04:34;-2.90;66.80
67182;DHT22;54114;53.524;49.396;2023-02-02T06:07:13;-2.90;66.80
67182;DHT22;54114;53.524;49.396;2023-02-02T06:09:39;-2.90;66.90
67182;DHT22;54114;53.524;49.396;2023-02-02T06:12:05;-2.90;67.00
67182;DHT22;54114;53.524;49.396;2023-02-02T06:14:32;-2.90;67.00
67182;DHT22;54114;53.524;49.396;2023-02-02T06:16:59;-2.80;67.10
67182;DHT22;54114;53.524;49.396;2023-02-02T06:19:37;-2.80;67.10
67182;DHT22;54114;53.524;49.396;2023-02-02T06:22:03;-2.80;67.10
67182;DHT22;54114;53.524;49.396;2023-02-02T06:24:30;-2.70;67.20
67182;DHT22;54114;53.524;49.396;2023-02-02T06:27:20;-2.70;67.20
67182;DHT22;54114;53.524;49.396;2023-02-02T06:29:48;-2.60;67.30
67182;DHT22;54114;53.524;49.396;2023-02-02T06:32:15;-2.60;67.30
67182;DHT22;54114;53.524;49.396;2023-02-02T06:34:41;-2.60;67.30
67182;DHT22;54114;53.524;49.396;2023-02-02T06:37:07;-2.50;67.30
67182;DHT22;54114;53.524;49.396;2023-02-02T06:39:34;-2.50;67.10
67182;DHT22;54114;53.524;49.396;2023-02-02T06:42:01;-2.50;67.20
67182;DHT22;54114;53.524;49.396;2023-02-02T06:44:28;-2.40;67.20
67182;DHT22;54114;53.524;49.396;2023-02-02T06:46:55;-2.40;67.20
67182;DHT22;54114;53.524;49.396;2023-02-02T06:49:21;-2.30;67.10
67182;DHT22;54114;53.524;49.396;2023-02-02T06:51:48;-2.30;67.20
67182;DHT22;54114;53.524;49.396;2023-02-02T06:54:14;-2.20;67.30
67182;DHT22;54114;53.524;49.396;2023-02-02T06:57:00;-2.20;67.20
67182;DHT22;54114;53.524;49.396;2023-02-02T06:59:27;-2.10;67.10
67182;DHT22;54114;53.524;49.396;2023-02-02T07:01:53;-2.10;67.00
67182;DHT22;54114;53.524;49.396;2023-02-02T07:04:19;-2.10;67.00
67182;DHT22;54114;53.524;49.396;2023-02-02T07:06:58;-2.00;67.10
67182;DHT22;54114;53.524;49.396;2023-02-02T07:09:42;-1.90;67.00
67182;DHT22;54114;53.524;49.396;2023-02-02T07:12:08;-1.90;66.80
67182;DHT22;54114;53.524;49.396;2023-02-02T07:14:35;-1.80;66.70
67182;DHT22;54114;53.524;49.396;2023-02-02T07:17:01;-1.80;66.70
67182;DHT22;54114;53.524;49.396;2023-02-02T07:19:27;-1.80;66.60
67182;DHT22;54114;53.524;49.396;2023-02-02T07:21:54;-1.70;66.30
67182;DHT22;54114;53.524;49.396;2023-02-02T07:24:20;-1.70;66.30
67182;DHT22;54114;53.524;49.396;2023-02-02T07:26:46;-1.60;66.40
67182;DHT22;54114;53.524;49.396;2023-02-02T07:29:13;-1.50;66.40
67182;DHT22;54114;53.524;49.396;2023-02-02T07:31:39;-1.40;66.10
67182;DHT22;54114;53.524;49.396;2023-02-02T07:34:06;-1.40;65.90
67182;DHT22;54114;53.524;49.396;2023-02-02T07:36:32;-1.30;66.00
67182;DHT22;54114;53.524;49.396;2023-02-02T07:38:59;-1.20;66.00
67182;DHT22;54114;53.524;49.396;2023-02-02T07:41:28;-1.20;65.90
67182;DHT22;54114;53.524;49.396;2023-02-02T07:43:55;-1.10;65.80
67182;DHT22;54114;53.524;49.396;2023-02-02T07:46:21;-0.90;65.70
67182;DHT22;54114;53.524;49.396;2023-02-02T07:48:48;-0.90;65.60
67182;DHT22;54114;53.524;49.396;2023-02-02T07:51:34;-0.80;65.50
67182;DHT22;54114;53.524;49.396;2023-02-02T07:54:00;-0.70;65.20
67182;DHT22;54114;53.524;49.396;2023-02-02T07:56:39;-0.70;65.10
67182;DHT22;54114;53.524;49.396;2023-02-02T07:59:05;-0.60;65.00
67182;DHT22;54114;53.524;49.396;2023-02-02T08:01:32;-0.50;64.80
67182;DHT22;54114;53.524;49.396;2023-02-02T08:03:58;-0.50;64.60
67182;DHT22;54114;53.524;49.396;2023-02-02T08:06:26;-0.50;64.60
67182;DHT22;54114;53.524;49.396;2023-02-02T08:08:54;-0.40;64.60
67182;DHT22;54114;53.524;49.396;2023-02-02T08:11:21;-0.30;64.60
67182;DHT22;54114;53.524;49.396;2023-02-02T08:13:56;-0.30;64.40
67182;DHT22;54114;53.524;49.396;2023-02-02T08:16:30;-0.20;64.20
67182;DHT22;54114;53.524;49.396;2023-02-02T08:18:57;-0.10;64.00
67182;DHT22;54114;53.524;49.396;2023-02-02T08:21:24;-0.10;64.00
67182;DHT22;54114;53.524;49.396;2023-02-02T08:23:51;0.00;64.00
67182;DHT22;54114;53.524;49.396;2023-02-02T08:26:19;0.00;63.80
67182;DHT22;54114;53.524;49.396;2023-02-02T08:28:47;0.10;63.70
67182;DHT22;54114;53.524;49.396;2023-02-02T08:31:18;0.20;63.80
67182;DHT22;54114;53.524;49.396;2023-02-02T08:33:51;0.30;63.60
67182;DHT22;54114;53.524;49.396;2023-02-02T08:36:25;0.30;63.40
67182;DHT22;54114;53.524;49.396;2023-02-02T08:39:00;0.40;63.20
67182;DHT22;54114;53.524;49.396;2023-02-02T08:41:37;0.40;63.10
67182;DHT22;54114;53.524;49.396;2023-02-02T08:44:13;0.50;63.00
67182;DHT22;54114;53.524;49.396;2023-02-02T08:46:46;0.60;62.80
67182;DHT22;54114;53.524;49.396;2023-02-02T08:49:13;0.60;62.70
67182;DHT22;54114;53.524;49.396;2023-02-02T08:51:46;0.60;62.50
67182;DHT22;54114;53.524;49.396;2023-02-02T08:54:18;0.60;62.50
67182;DHT22;54114;53.524;49.396;2023-02-02T08:57:15;0.70;62.50
67182;DHT22;54114;53.524;49.396;2023-02-02T08:59:48;0.70;62.30
67182;DHT22;54114;53.524;49.396;2023-02-02T09:02:14;0.80;62.20
67182;DHT22;54114;53.524;49.396;2023-02-02T09:04:48;0.80;62.30
67182;DHT22;54114;53.524;49.396;2023-02-02T09:07:15;0.90;62.30
67182;DHT22;54114;53.524;49.396;2023-02-02T09:09:41;0.90;62.10
67182;DHT22;54114;53.524;49.396;2023-02-02T09:12:13;1.00;62.00
67182;DHT22;54114;53.524;49.396;2023-02-02T09:14:40;1.00;62.00
67182;DHT22;54114;53.524;49.396;2023-02-02T09:17:06;1.10;62.00
67182;DHT22;54114;53.524;49.396;2023-02-02T09:19:33;1.20;61.90
67182;DHT22;54114;53.524;49.396;2023-02-02T09:21:59;1.20;61.70
67182;DHT22;54114;53.524;49.396;2023-02-02T09:24:31;1.30;61.60
67182;DHT22;54114;53.524;49.396;2023-02-02T09:27:28;1.30;61.50
67182;DHT22;54114;53.524;49.396;2023-02-02T09:30:07;1.40;61.30
67182;DHT22;54114;53.524;49.396;2023-02-02T09:32:40;1.40;61.30
67182;DHT22;54114;53.524;49.396;2023-02-02T09:35:07;1.50;61.20
67182;DHT22;54114;53.524;49.396;2023-02-02T09:37:45;1.50;61.20
67182;DHT22;54114;53.524;49.396;2023-02-02T09:40:15;1.50;61.00
67182;DHT22;54114;53.524;49.396;2023-02-02T09:47:51;1.60;61.00
67182;DHT22;54114;53.524;49.396;2023-02-02T09:50:21;1.70;61.00
67182;DHT22;54114;53.524;49.396;2023-02-02T09:55:34;1.80;60.80
67182;DHT22;54114;53.524;49.396;2023-02-02T10:01:07;1.90;60.40
67182;DHT22;54114;53.524;49.396;2023-02-02T10:06:44;1.70;60.50
67182;DHT22;54114;53.524;49.396;2023-02-02T10:09:18;1.70;60.80
67182;DHT22;54114;53.524;49.396;2023-02-02T10:15:13;1.70;60.90
67182;DHT22;54114;53.524;49.396;2023-02-02T10:20:55;1.80;60.90
67182;DHT22;54114;53.524;49.396;2023-02-02T10:23:27;1.80;61.00
67182;DHT22;54114;53.524;49.396;2023-02-02T10:31:35;2.00;60.80
67182;DHT22;54114;53.524;49.396;2023-02-02T10:34:09;2.00;60.70
67182;DHT22;54114;53.524;49.396;2023-02-02T10:42:04;2.00;60.60
67182;DHT22;54114;53.524;49.396;2023-02-02T10:44:39;2.00;60.60
67182;DHT22;54114;53.524;49.396;2023-02-02T10:47:21;2.00;60.50
67182;DHT22;54114;53.524;49.396;2023-02-02T10:50:02;1.90;60.50
67182;DHT22;54114;53.524;49.396;2023-02-02T10:52:33;1.80;60.50
67182;DHT22;54114;53.524;49.396;2023-02-02T11:03:16;1.60;60.10
67182;DHT22;54114;53.524;49.396;2023-02-02T11:05:58;1.50;60.20
67182;DHT22;54114;53.524;49.396;2023-02-02T11:08:52;1.50;60.00
67182;DHT22;54114;53.524;49.396;2023-02-02T11:11:38;1.50;60.00
67182;DHT22;54114;53.524;49.396;2023-02-02T11:16:47;1.30;59.80
67182;DHT22;54114;53.524;49.396;2023-02-02T11:19:27;1.20;59.90
67182;DHT22;54114;53.524;49.396;2023-02-02T11:21:55;1.20;60.10
67182;DHT22;54114;53.524;49.396;2023-02-02T11:26:56;1.00;60.30
67182;DHT22;54114;53.524;49.396;2023-02-02T11:30:16;1.00;60.40
67182;DHT22;54114;53.524;49.396;2023-02-02T11:37:35;0.80;60.80
67182;DHT22;54114;53.524;49.396;2023-02-02T11:42:48;0.80;61.00
67182;DHT22;54114;53.524;49.396;2023-02-02T11:45:19;0.80;61.20
67182;DHT22;54114;53.524;49.396;2023-02-02T11:48:18;0.80;61.20
67182;DHT22;54114;53.524;49.396;2023-02-02T11:50:48;0.70;61.20
67182;DHT22;54114;53.524;49.396;2023-02-02T11:56:08;0.70;61.30
67182;DHT22;54114;53.524;49.396;2023-02-02T11:58:46;0.70;61.40
67182;DHT22;54114;53.524;49.396;2023-02-02T12:03:55;0.80;61.60
67182;DHT22;54114;53.524;49.396;2023-02-02T12:06:32;0.80;61.70
67182;DHT22;54114;53.524;49.396;2023-02-02T12:09:03;0.80;61.80
67182;DHT22;54114;53.524;49.396;2023-02-02T12:11:42;0.80;61.80
67182;DHT22;54114;53.524;49.396;2023-02-02T12:14:31;0.90;61.80
67182;DHT22;54114;53.524;49.396;2023-02-02T12:25:35;1.00;62.00
67182;DHT22;54114;53.524;49.396;2023-02-02T12:31:08;1.10;62.10
67182;DHT22;54114;53.524;49.396;2023-02-02T12:36:24;1.10;62.10
67182;DHT22;54114;53.524;49.396;2023-02-02T12:39:01;1.10;62.10
67182;DHT22;54114;53.524;49.396;2023-02-02T12:44:48;1.10;62.10
67182;DHT22;54114;53.524;49.396;2023-02-02T13:04:00;0.90;62.70
67182;DHT22;54114;53.524;49.396;2023-02-02T13:06:59;0.90;62.70
67182;DHT22;54114;53.524;49.396;2023-02-02T13:12:27;0.80;62.80
67182;DHT22;54114;53.524;49.396;2023-02-02T13:14:58;0.70;62.90
67182;DHT22;54114;53.524;49.396;2023-02-02T13:20:35;0.70;63.10
67182;DHT22;54114;53.524;49.396;2023-02-02T13:23:02;0.60;63.20
67182;DHT22;54114;53.524;49.396;2023-02-02T13:25:39;0.60;63.30
67182;DHT22;54114;53.524;49.396;2023-02-02T13:28:14;0.60;63.30
67182;DHT22;54114;53.524;49.396;2023-02-02T13:30:44;0.50;63.40
67182;DHT22;54114;53.524;49.396;2023-02-02T13:33:16;0.50;64.20
67182;DHT22;54114;53.524;49.396;2023-02-02T13:36:29;0.40;63.60
67182;DHT22;54114;53.524;49.396;2023-02-02T13:38:53;0.40;63.80
67182;DHT22;54114;53.524;49.396;2023-02-02T13:41:20;0.40;63.90
67182;DHT22;54114;53.524;49.396;2023-02-02T13:46:59;0.40;64.00
67182;DHT22;54114;53.524;49.396;2023-02-02T13:49:29;0.30;64.00
67182;DHT22;54114;53.524;49.396;2023-02-02T13:54:59;0.30;64.20
67182;DHT22;54114;53.524;49.396;2023-02-02T14:02:39;0.10;64.50
67182;DHT22;54114;53.524;49.396;2023-02-02T14:05:15;0.10;64.60
67182;DHT22;54114;53.524;49.396;2023-02-02T14:08:05;0.10;64.60
67182;DHT22;54114;53.524;49.396;2023-02-02T14:13:06;0.00;64.80
67182;DHT22;54114;53.524;49.396;2023-02-02T14:15:58;0.00;64.90
67182;DHT22;54114;53.524;49.396;2023-02-02T14:26:55;0.00;65.30
67182;DHT22;54114;53.524;49.396;2023-02-02T14:31:54;0.00;65.30
67182;DHT22;54114;53.524;49.396;2023-02-02T14:34:25;0.00;65.30
67182;DHT22;54114;53.524;49.396;2023-02-02T14:45:26;-0.10;65.70
67182;DHT22;54114;53.524;49.396;2023-02-02T14:47:54;-0.10;65.90
67182;DHT22;54114;53.524;49.396;2023-02-02T14:50:27;-0.20;66.00
67182;DHT22;54114;53.524;49.396;2023-02-02T14:53:21;-0.20;66.20
67182;DHT22;54114;53.524;49.396;2023-02-02T14:56:02;-0.20;66.20
67182;DHT22;54114;53.524;49.396;2023-02-02T15:01:11;-0.20;66.50
67182;DHT22;54114;53.524;49.396;2023-02-02T15:03:53;-0.20;66.40
67182;DHT22;54114;53.524;49.396;2023-02-02T15:17:19;-0.30;66.40
67182;DHT22;54114;53.524;49.396;2023-02-02T15:25:49;-0.30;66.70
67182;DHT22;54114;53.524;49.396;2023-02-02T15:31:17;-0.20;66.70
67182;DHT22;54114;53.524;49.396;2023-02-02T15:33:53;-0.30;66.70
67182;DHT22;54114;53.524;49.396;2023-02-02T15:36:26;-0.30;66.70
67182;DHT22;54114;53.524;49.396;2023-02-02T15:38:54;-0.20;66.80
67182;DHT22;54114;53.524;49.396;2023-02-02T15:41:41;-0.30;66.70
67182;DHT22;54114;53.524;49.396;2023-02-02T15:44:18;-0.30;66.80
67182;DHT22;54114;53.524;49.396;2023-02-02T15:46:45;-0.30;66.90
67182;DHT22;54114;53.524;49.396;2023-02-02T15:49:13;-0.40;67.00
67182;DHT22;54114;53.524;49.396;2023-02-02T15:51:50;-0.40;67.00
67182;DHT22;54114;53.524;49.396;2023-02-02T15:54:26;-0.40;67.00
67182;DHT22;54114;53.524;49.396;2023-02-02T15:56:52;-0.50;67.20
67182;DHT22;54114;53.524;49.396;2023-02-02T15:59:21;-0.50;67.30
67182;DHT22;54114;53.524;49.396;2023-02-02T16:04:46;-0.50;67.40
67182;DHT22;54114;53.524;49.396;2023-02-02T16:07:20;-0.50;67.50
67182;DHT22;54114;53.524;49.396;2023-02-02T16:10:04;-0.50;67.50
67182;DHT22;54114;53.524;49.396;2023-02-02T16:12:38;-0.60;67.50
67182;DHT22;54114;53.524;49.396;2023-02-02T16:15:05;-0.60;67.70
67182;DHT22;54114;53.524;49.396;2023-02-02T16:17:43;-0.50;67.80
67182;DHT22;54114;53.524;49.396;2023-02-02T16:20:11;-0.50;67.70
67182;DHT22;54114;53.524;49.396;2023-02-02T16:22:39;-0.50;67.70
67182;DHT22;54114;53.524;49.396;2023-02-02T16:25:14;-0.50;67.60
67182;DHT22;54114;53.524;49.396;2023-02-02T16:27:43;-0.50;67.60
67182;DHT22;54114;53.524;49.396;2023-02-02T16:30:14;-0.50;67.60
67182;DHT22;54114;53.524;49.396;2023-02-02T16:32:51;-0.50;67.70
67182;DHT22;54114;53.524;49.396;2023-02-02T16:40:48;-0.60;67.60
67182;DHT22;54114;53.524;49.396;2023-02-02T16:43:26;-0.60;67.60
67182;DHT22;54114;53.524;49.396;2023-02-02T16:45:55;-0.60;67.60
67182;DHT22;54114;53.524;49.396;2023-02-02T16:48:36;-0.60;67.60
67182;DHT22;54114;53.524;49.396;2023-02-02T16:56:43;-0.80;67.90
67182;DHT22;54114;53.524;49.396;2023-02-02T16:59:20;-0.80;67.80
67182;DHT22;54114;53.524;49.396;2023-02-02T17:01:51;-0.80;67.90
67182;DHT22;54114;53.524;49.396;2023-02-02T17:04:31;-0.80;68.00
67182;DHT22;54114;53.524;49.396;2023-02-02T17:07:11;-0.80;68.10
67182;DHT22;54114;53.524;49.396;2023-02-02T17:09:44;-0.80;68.10
67182;DHT22;54114;53.524;49.396;2023-02-02T17:14:54;-0.80;68.00
67182;DHT22;54114;53.524;49.396;2023-02-02T17:17:23;-0.90;68.10
67182;DHT22;54114;53.524;49.396;2023-02-02T17:19:50;-0.90;68.10
67182;DHT22;54114;53.524;49.396;2023-02-02T17:22:17;-0.90;68.20
67182;DHT22;54114;53.524;49.396;2023-02-02T17:24:46;-0.90;68.20
67182;DHT22;54114;53.524;49.396;2023-02-02T17:27:14;-0.90;68.20
67182;DHT22;54114;53.524;49.396;2023-02-02T17:29:51;-0.90;68.10
67182;DHT22;54114;53.524;49.396;2023-02-02T17:32:19;-0.90;68.20
67182;DHT22;54114;53.524;49.396;2023-02-02T17:34:45;-0.90;68.20
67182;DHT22;54114;53.524;49.396;2023-02-02T17:37:12;-0.90;68.30
67182;DHT22;54114;53.524;49.396;2023-02-02T17:39:38;-0.90;68.30
67182;DHT22;54114;53.524;49.396;2023-02-02T17:42:04;-0.90;68.30
67182;DHT22;54114;53.524;49.396;2023-02-02T17:44:31;-0.90;68.30
67182;DHT22;54114;53.524;49.396;2023-02-02T17:46:58;-0.90;68.20
67182;DHT22;54114;53.524;49.396;2023-02-02T17:49:25;-0.90;68.20
67182;DHT22;54114;53.524;49.396;2023-02-02T17:51:51;-0.90;68.20
67182;DHT22;54114;53.524;49.396;2023-02-02T17:54:17;-1.00;68.30
67182;DHT22;54114;53.524;49.396;2023-02-02T17:56:44;-1.00;68.30
67182;DHT22;54114;53.524;49.396;2023-02-02T17:59:11;-1.00;68.40
67182;DHT22;54114;53.524;49.396;2023-02-02T18:01:38;-1.00;68.40
67182;DHT22;54114;53.524;49.396;2023-02-02T18:04:06;-1.00;68.50
67182;DHT22;54114;53.524;49.396;2023-02-02T18:06:33;-1.10;68.50
67182;DHT22;54114;53.524;49.396;2023-02-02T18:09:00;-1.10;68.60
67182;DHT22;54114;53.524;49.396;2023-02-02T18:11:27;-1.10;68.60
67182;DHT22;54114;53.524;49.396;2023-02-02T18:13:53;-1.10;68.80
67182;DHT22;54114;53.524;49.396;2023-02-02T18:16:20;-1.20;68.70
67182;DHT22;54114;53.524;49.396;2023-02-02T18:18:47;-1.20;68.80
67182;DHT22;54114;53.524;49.396;2023-02-02T18:21:13;-1.20;68.90
67182;DHT22;54114;53.524;49.396;2023-02-02T18:23:40;-1.20;68.90
67182;DHT22;54114;53.524;49.396;2023-02-02T18:28:39;-1.20;68.90
67182;DHT22;54114;53.524;49.396;2023-02-02T18:31:06;-1.20;69.00
67182;DHT22;54114;53.524;49.396;2023-02-02T18:33:33;-1.20;69.10
67182;DHT22;54114;53.524;49.396;2023-02-02T18:36:05;-1.20;69.20
67182;DHT22;54114;53.524;49.396;2023-02-02T18:38:33;-1.20;69.20
67182;DHT22;54114;53.524;49.396;2023-02-02T18:40:59;-1.20;69.20
67182;DHT22;54114;53.524;49.396;2023-02-02T18:43:26;-1.20;69.10
67182;DHT22;54114;53.524;49.396;2023-02-02T18:45:59;-1.20;69.00
67182;DHT22;54114;53.524;49.396;2023-02-02T18:48:27;-1.30;68.90
67182;DHT22;54114;53.524;49.396;2023-02-02T18:50:54;-1.30;69.70
67182;DHT22;54114;53.524;49.396;2023-02-02T18:53:20;-1.30;69.20
67182;DHT22;54114;53.524;49.396;2023-02-02T18:55:47;-1.30;69.40